HorshamWeather.Com Historical Data
 
Daily Summary for September 01, 2014 Units:  English    Metric   Both
« Previous Day
Next Day »
Daily Weekly Monthly Yearly Custom
  Current: High: Low: Average:
Temperature: 77.5 °F 87.6 °F 71.3 °F 78.5 °F
Dew Point: 73.0 °F 76.4 °F 70.1 °F 72.3 °F
Humidity: 86% 98% 60% 83%
Wind Speed: 0.0mph 5.0mph 0.0mph 1.7mph
Wind Gust: 0.0mph 9.0mph - -
WindCalm - - SSW
Pressure: 29.95 in 30.03 in 29.92 in -
Precipitation: 0.07 in      
Historical Graphs
 
 
Tabular Data for September 01, 2014
Time Temperature Dew Point Pressure Wind Wind Speed Wind Gust Humidity Rainfall Rate (Hourly)
00:00 72.3 °F 71.1 °F 30.01 in Calm   1.0 mph 96% 0.00 in
00:05 72.3 °F 71.1 °F 30.01 in Calm   1.0 mph 96% 0.00 in
00:10 72.4 °F 71.2 °F 30.01 in Calm   2.0 mph 96% 0.00 in
00:15 72.4 °F 71.5 °F 30.01 in Calm   2.0 mph 97% 0.00 in
00:20 72.5 °F 71.6 °F 30.01 in Calm   1.0 mph 97% 0.00 in
00:25 72.5 °F 71.6 °F 30.02 in SSE 1.0 mph 2.0 mph 97% 0.00 in
00:30 72.6 °F 71.7 °F 30.02 in Calm   1.0 mph 97% 0.01 in
00:35 72.6 °F 71.7 °F 30.02 in South 1.0 mph 4.0 mph 97% 0.01 in
00:40 72.7 °F 71.5 °F 30.02 in WSW 1.0 mph 4.0 mph 96% 0.01 in
00:45 72.8 °F 71.6 °F 30.02 in SSE 1.0 mph 4.0 mph 96% 0.01 in
00:50 72.8 °F 71.6 °F 30.02 in South 1.0 mph 3.0 mph 96% 0.02 in
00:55 72.8 °F 71.6 °F 30.02 in SSE 1.0 mph 4.0 mph 96% 0.02 in
01:00 72.8 °F 71.6 °F 30.02 in SSE 1.0 mph 3.0 mph 96% 0.02 in
01:05 72.8 °F 71.6 °F 30.02 in SSW 2.0 mph 6.0 mph 96% 0.03 in
01:10 72.8 °F 71.6 °F 30.02 in South 1.0 mph 6.0 mph 96% 0.03 in
01:15 72.8 °F 71.6 °F 30.02 in SSE 1.0 mph 3.0 mph 96% 0.04 in
01:20 72.8 °F 71.6 °F 30.01 in Calm   4.0 mph 96% 0.05 in
01:25 72.7 °F 71.5 °F 30.01 in Calm   3.0 mph 96% 0.05 in
01:30 72.7 °F 71.5 °F 30.01 in Calm   2.0 mph 96% 0.06 in
01:35 72.7 °F 71.5 °F 30.01 in Calm   2.0 mph 96% 0.05 in
01:40 72.6 °F 71.4 °F 30.01 in Calm   4.0 mph 96% 0.06 in
01:45 72.6 °F 71.4 °F 30.00 in Calm   1.0 mph 96% 0.06 in
01:50 72.6 °F 71.7 °F 30.00 in Calm   1.0 mph 97% 0.06 in
01:55 72.6 °F 71.7 °F 30.00 in Calm   2.0 mph 97% 0.05 in
02:00 72.5 °F 71.6 °F 30.00 in Calm   1.0 mph 97% 0.05 in
02:05 72.4 °F 71.5 °F 30.00 in Calm   1.0 mph 97% 0.05 in
02:10 72.4 °F 71.2 °F 30.00 in Calm   1.0 mph 96% 0.04 in
02:15 72.4 °F 71.5 °F 30.00 in Calm     97% 0.04 in
02:20 72.3 °F 71.4 °F 30.00 in Calm   1.0 mph 97% 0.03 in
02:25 72.2 °F 71.0 °F 30.00 in Calm   1.0 mph 96% 0.02 in
02:30 72.1 °F 70.9 °F 30.00 in Calm     96% 0.02 in
02:35 72.1 °F 70.9 °F 30.00 in Calm     96% 0.01 in
02:40 72.0 °F 70.8 °F 30.00 in Calm     96% 0.01 in
02:45 71.9 °F 70.7 °F 30.00 in Calm     96% 0.00 in
02:50 71.8 °F 70.6 °F 29.99 in Calm   1.0 mph 96% 0.00 in
02:55 71.7 °F 70.5 °F 29.99 in Calm     96% 0.00 in
03:00 71.7 °F 70.5 °F 30.00 in Calm     96% 0.00 in
03:05 71.7 °F 70.5 °F 29.99 in Calm     96% 0.00 in
03:10 71.6 °F 70.4 °F 30.00 in Calm     96% 0.00 in
03:15 71.6 °F 70.4 °F 30.00 in Calm     96% 0.00 in
03:20 71.5 °F 70.3 °F 30.00 in Calm     96% 0.00 in
03:25 71.5 °F 70.3 °F 30.00 in Calm     96% 0.00 in
03:30 71.4 °F 70.2 °F 30.00 in Calm   1.0 mph 96% 0.00 in
03:35 71.4 °F 70.2 °F 30.00 in Calm   1.0 mph 96% 0.00 in
03:40 71.3 °F 70.1 °F 30.00 in Calm     96% 0.00 in
03:45 71.4 °F 70.5 °F 30.00 in Calm   1.0 mph 97% 0.00 in
03:50 71.5 °F 70.6 °F 30.00 in Calm   2.0 mph 97% 0.00 in
03:55 71.5 °F 70.6 °F 30.00 in Calm     97% 0.00 in
04:00 71.5 °F 70.6 °F 30.00 in Calm     97% 0.00 in
04:05 71.5 °F 70.6 °F 30.00 in Calm   1.0 mph 97% 0.00 in
04:10 71.5 °F 70.6 °F 30.00 in Calm   1.0 mph 97% 0.00 in
04:15 71.6 °F 70.7 °F 30.00 in Calm   1.0 mph 97% 0.00 in
04:20 71.6 °F 70.7 °F 30.00 in Calm   1.0 mph 97% 0.00 in
04:25 71.7 °F 70.8 °F 30.00 in Calm   1.0 mph 97% 0.00 in
04:30 71.7 °F 70.8 °F 30.00 in Calm   1.0 mph 97% 0.00 in
04:35 71.7 °F 70.8 °F 30.00 in Calm     97% 0.00 in
04:48 71.7 °F 70.8 °F 30.00 in Calm     97% 0.00 in
04:53 71.7 °F 70.8 °F 30.00 in Calm     97% 0.00 in
04:58 71.6 °F 70.7 °F 30.00 in Calm     97% 0.00 in
05:03 71.6 °F 70.7 °F 30.00 in Calm     97% 0.00 in
05:08 71.6 °F 70.7 °F 30.00 in Calm     97% 0.00 in
05:13 71.6 °F 70.7 °F 30.01 in Calm     97% 0.00 in
05:18 71.6 °F 70.7 °F 30.01 in Calm     97% 0.00 in
05:23 71.6 °F 70.7 °F 30.01 in Calm     97% 0.00 in
05:28 71.6 °F 70.7 °F 30.01 in Calm     97% 0.00 in
05:33 71.7 °F 70.8 °F 30.01 in Calm   1.0 mph 97% 0.00 in
05:38 71.7 °F 70.8 °F 30.02 in Calm   1.0 mph 97% 0.00 in
05:43 71.9 °F 71.0 °F 30.01 in Calm   1.0 mph 97% 0.00 in
05:48 71.7 °F 70.8 °F 30.01 in Calm   1.0 mph 97% 0.00 in
05:53 71.7 °F 70.8 °F 30.01 in Calm     97% 0.00 in
05:58 71.7 °F 70.8 °F 30.02 in Calm     97% 0.00 in
06:03 71.8 °F 70.9 °F 30.02 in Calm     97% 0.00 in
06:08 71.9 °F 71.0 °F 30.02 in Calm   1.0 mph 97% 0.00 in
06:13 71.9 °F 71.0 °F 30.02 in Calm   1.0 mph 97% 0.00 in
06:18 71.9 °F 71.0 °F 30.02 in Calm     97% 0.00 in
06:23 71.9 °F 71.0 °F 30.02 in Calm     97% 0.00 in
06:28 71.9 °F 71.0 °F 30.02 in SSW 1.0 mph 1.0 mph 97% 0.00 in
06:33 72.0 °F 71.1 °F 30.02 in Calm     97% 0.00 in
06:38 72.0 °F 71.1 °F 30.02 in Calm     97% 0.00 in
06:43 71.9 °F 71.0 °F 30.02 in Calm     97% 0.00 in
06:48 71.9 °F 71.0 °F 30.02 in Calm     97% 0.00 in
06:53 71.8 °F 70.9 °F 30.02 in Calm     97% 0.00 in
06:58 71.8 °F 70.9 °F 30.02 in Calm     97% 0.00 in
07:03 71.8 °F 70.9 °F 30.02 in Calm     97% 0.00 in
07:08 71.8 °F 70.9 °F 30.02 in Calm     97% 0.00 in
07:13 71.7 °F 70.8 °F 30.02 in Calm     97% 0.00 in
07:18 71.6 °F 70.4 °F 30.02 in Calm   1.0 mph 96% 0.00 in
07:23 71.5 °F 70.3 °F 30.02 in Calm   1.0 mph 96% 0.00 in
07:28 71.6 °F 70.7 °F 30.03 in Calm   1.0 mph 97% 0.00 in
07:33 71.8 °F 70.9 °F 30.02 in Calm     97% 0.00 in
07:38 72.1 °F 71.2 °F 30.02 in Calm   2.0 mph 97% 0.00 in
07:43 72.3 °F 71.4 °F 30.02 in Calm   1.0 mph 97% 0.00 in
07:48 72.5 °F 71.9 °F 30.02 in Calm     98% 0.00 in
07:53 72.6 °F 71.7 °F 30.02 in Calm     97% 0.00 in
07:58 72.8 °F 71.9 °F 30.02 in Calm     97% 0.00 in
08:03 72.9 °F 72.0 °F 30.02 in ENE 1.0 mph 2.0 mph 97% 0.00 in
08:08 72.9 °F 72.0 °F 30.02 in ENE 1.0 mph 1.0 mph 97% 0.00 in
08:13 73.0 °F 72.1 °F 30.02 in Calm   1.0 mph 97% 0.00 in
08:18 73.2 °F 72.3 °F 30.02 in NW 1.0 mph 2.0 mph 97% 0.00 in
08:23 73.3 °F 72.4 °F 30.02 in Calm   1.0 mph 97% 0.00 in
08:28 73.4 °F 72.5 °F 30.02 in Calm   1.0 mph 97% 0.00 in
08:33 73.7 °F 72.8 °F 30.01 in Calm   1.0 mph 97% 0.00 in
08:38 73.8 °F 72.9 °F 30.02 in Calm   2.0 mph 97% 0.00 in
08:43 73.8 °F 72.9 °F 30.02 in Calm   1.0 mph 97% 0.00 in
08:45 73.8 °F 72.9 °F 30.02 in Calm   1.0 mph 97% 0.00 in
08:50 73.9 °F 73.0 °F 30.02 in Calm   1.0 mph 97% 0.00 in
09:01 73.8 °F 72.9 °F 30.02 in Calm   3.0 mph 97% 0.00 in
09:06 74.0 °F 73.1 °F 30.02 in Calm   1.0 mph 97% 0.00 in
09:11 74.0 °F 72.8 °F 30.02 in Calm     96% 0.00 in
09:16 74.1 °F 72.9 °F 30.02 in SW 1.0 mph 2.0 mph 96% 0.00 in
09:21 74.1 °F 72.9 °F 30.02 in Calm     96% 0.00 in
09:26 74.2 °F 73.0 °F 30.02 in WNW 1.0 mph 3.0 mph 96% 0.00 in
09:31 74.4 °F 73.2 °F 30.01 in Calm   1.0 mph 96% 0.00 in
09:36 74.7 °F 73.5 °F 30.01 in Calm     96% 0.00 in
09:41 75.0 °F 73.8 °F 30.01 in WSW 1.0 mph 1.0 mph 96% 0.00 in
09:46 75.4 °F 74.2 °F 30.01 in Calm   1.0 mph 96% 0.00 in
09:51 75.5 °F 73.7 °F 30.01 in Calm     94% 0.00 in
09:56 75.7 °F 73.8 °F 30.02 in WSW 1.0 mph 1.0 mph 94% 0.00 in
10:01 76.0 °F 74.2 °F 30.02 in Calm   1.0 mph 94% 0.00 in
10:06 76.6 °F 75.4 °F 30.01 in Calm   2.0 mph 96% 0.00 in
10:11 77.0 °F 74.5 °F 30.01 in SSW 1.0 mph 2.0 mph 92% 0.00 in
10:16 77.4 °F 74.6 °F 30.01 in SW 2.0 mph 2.0 mph 91% 0.00 in
10:21 77.7 °F 74.5 °F 30.01 in SSE 1.0 mph 4.0 mph 90% 0.00 in
10:26 77.8 °F 74.6 °F 30.01 in West 1.0 mph 2.0 mph 90% 0.00 in
10:31 78.1 °F 74.9 °F 30.01 in WSW 2.0 mph 3.0 mph 90% 0.00 in
10:36 78.6 °F 74.8 °F 30.01 in Calm   1.0 mph 88% 0.00 in
10:41 79.0 °F 75.2 °F 30.01 in SSW 3.0 mph 3.0 mph 88% 0.00 in
10:46 79.6 °F 75.4 °F 30.01 in Calm   3.0 mph 87% 0.00 in
10:51 80.2 °F 74.9 °F 30.01 in SE 2.0 mph 2.0 mph 84% 0.00 in
10:56 80.7 °F 75.8 °F 30.01 in SE 1.0 mph 5.0 mph 85% 0.00 in
11:01 81.3 °F 76.4 °F 30.01 in NNW 1.0 mph 2.0 mph 85% 0.00 in
11:06 81.8 °F 75.8 °F 30.01 in SSE 1.0 mph 2.0 mph 82% 0.00 in
11:11 81.9 °F 75.5 °F 30.01 in Calm   2.0 mph 81% 0.00 in
11:16 81.9 °F 74.8 °F 30.01 in South 4.0 mph 4.0 mph 79% 0.00 in
11:21 81.9 °F 74.8 °F 30.00 in South 3.0 mph 3.0 mph 79% 0.00 in
11:26 82.2 °F 75.4 °F 30.00 in SE 1.0 mph 1.0 mph 80% 0.00 in
11:31 82.8 °F 74.9 °F 30.00 in WSW 1.0 mph 2.0 mph 77% 0.00 in
11:36 82.9 °F 73.4 °F 30.01 in WSW 2.0 mph 3.0 mph 73% 0.00 in
11:41 82.9 °F 72.9 °F 30.01 in WNW 1.0 mph 2.0 mph 72% 0.00 in
11:46 83.2 °F 74.5 °F 30.00 in Calm   3.0 mph 75% 0.00 in
11:51 83.5 °F 73.9 °F 30.00 in Calm   4.0 mph 73% 0.00 in
11:56 83.6 °F 73.6 °F 30.00 in SSE 4.0 mph 4.0 mph 72% 0.00 in
12:01 83.9 °F 74.3 °F 30.00 in Calm   1.0 mph 73% 0.00 in
12:06 84.6 °F 75.4 °F 29.99 in South 3.0 mph 3.0 mph 74% 0.00 in
12:11 85.0 °F 73.7 °F 30.00 in West 3.0 mph 4.0 mph 69% 0.00 in
12:16 85.0 °F 73.7 °F 29.99 in WSW 2.0 mph 2.0 mph 69% 0.00 in
12:21 84.8 °F 73.5 °F 29.99 in SSW 1.0 mph 3.0 mph 69% 0.00 in
12:26 84.6 °F 74.6 °F 29.99 in WSW 1.0 mph 2.0 mph 72% 0.00 in
12:31 84.6 °F 73.3 °F 29.99 in SE 1.0 mph 3.0 mph 69% 0.00 in
12:36 84.1 °F 73.7 °F 29.99 in SSE 1.0 mph 9.0 mph 71% 0.00 in
12:41 84.1 °F 73.3 °F 29.99 in SSE 1.0 mph 3.0 mph 70% 0.00 in
12:46 84.0 °F 72.7 °F 29.99 in SSW 1.0 mph 4.0 mph 69% 0.00 in
12:51 84.1 °F 73.3 °F 29.99 in WNW 2.0 mph 3.0 mph 70% 0.00 in
12:56 84.2 °F 74.6 °F 29.98 in SSW 2.0 mph 2.0 mph 73% 0.00 in
13:01 84.4 °F 73.1 °F 29.98 in Calm   2.0 mph 69% 0.00 in
13:06 84.5 °F 73.2 °F 29.98 in South 1.0 mph 2.0 mph 69% 0.00 in
13:11 84.5 °F 72.8 °F 29.98 in WSW 1.0 mph 5.0 mph 68% 0.00 in
13:16 84.7 °F 73.8 °F 29.98 in SSE 5.0 mph 5.0 mph 70% 0.00 in
13:21 84.7 °F 73.4 °F 29.98 in SE 3.0 mph 5.0 mph 69% 0.00 in
13:26 84.8 °F 73.5 °F 29.98 in SW 4.0 mph 4.0 mph 69% 0.00 in
13:31 85.0 °F 72.8 °F 29.97 in SSW 2.0 mph 3.0 mph 67% 0.00 in
13:36 84.8 °F 72.6 °F 29.97 in South 2.0 mph 3.0 mph 67% 0.00 in
13:41 84.9 °F 74.0 °F 29.97 in South 3.0 mph 4.0 mph 70% 0.00 in
13:46 85.2 °F 75.2 °F 29.97 in SW 4.0 mph 6.0 mph 72% 0.00 in
13:51 85.5 °F 74.6 °F 29.97 in WSW 3.0 mph 3.0 mph 70% 0.00 in
13:56 85.7 °F 73.0 °F 29.97 in South 1.0 mph 5.0 mph 66% 0.00 in
14:01 86.1 °F 73.9 °F 29.97 in SW 4.0 mph 5.0 mph 67% 0.00 in
14:06 86.3 °F 73.6 °F 29.97 in WSW 1.0 mph 6.0 mph 66% 0.00 in
14:11 86.3 °F 73.2 °F 29.97 in West 2.0 mph 2.0 mph 65% 0.00 in
14:16 86.2 °F 72.6 °F 29.97 in South 2.0 mph 4.0 mph 64% 0.00 in
14:21 85.9 °F 72.8 °F 29.97 in West 1.0 mph 3.0 mph 65% 0.00 in
14:26 85.6 °F 73.4 °F 29.97 in SW 1.0 mph 1.0 mph 67% 0.00 in
14:31 85.4 °F 73.2 °F 29.97 in Calm   2.0 mph 67% 0.00 in
14:36 85.3 °F 74.4 °F 29.97 in Calm   2.0 mph 70% 0.00 in
14:41 85.5 °F 73.7 °F 29.96 in SSW 2.0 mph 2.0 mph 68% 0.00 in
14:46 85.8 °F 74.9 °F 29.96 in Calm   1.0 mph 70% 0.00 in
14:51 86.4 °F 75.0 °F 29.96 in WNW 2.0 mph 2.0 mph 69% 0.00 in
14:56 86.9 °F 73.3 °F 29.96 in West 3.0 mph 3.0 mph 64% 0.00 in
15:01 86.9 °F 73.3 °F 29.95 in South 1.0 mph 2.0 mph 64% 0.00 in
15:06 86.8 °F 71.8 °F 29.96 in SW 1.0 mph 3.0 mph 61% 0.00 in
15:11 87.2 °F 74.5 °F 29.95 in ENE 4.0 mph 4.0 mph 66% 0.00 in
15:16 87.6 °F 72.5 °F 29.95 in WSW 2.0 mph 4.0 mph 61% 0.00 in
15:21 87.5 °F 72.9 °F 29.95 in West 4.0 mph 4.0 mph 62% 0.00 in
15:26 87.4 °F 72.3 °F 29.95 in SW 1.0 mph 3.0 mph 61% 0.00 in
15:31 86.9 °F 73.3 °F 29.95 in NNW 1.0 mph 2.0 mph 64% 0.00 in
15:36 86.6 °F 72.0 °F 29.95 in North 1.0 mph 1.0 mph 62% 0.00 in
15:41 86.4 °F 72.3 °F 29.95 in SSW 2.0 mph 2.0 mph 63% 0.00 in
15:46 86.5 °F 73.8 °F 29.95 in West 2.0 mph 2.0 mph 66% 0.00 in
15:51 86.9 °F 74.2 °F 29.95 in South 1.0 mph 1.0 mph 66% 0.00 in
15:56 87.4 °F 73.3 °F 29.95 in SSW 2.0 mph 6.0 mph 63% 0.00 in
16:01 87.5 °F 72.9 °F 29.94 in WSW 2.0 mph 3.0 mph 62% 0.00 in
16:06 87.5 °F 72.9 °F 29.94 in West 3.0 mph 3.0 mph 62% 0.00 in
16:11 87.4 °F 72.3 °F 29.94 in SW 1.0 mph 5.0 mph 61% 0.00 in
16:16 87.1 °F 72.5 °F 29.94 in SW 3.0 mph 3.0 mph 62% 0.00 in
16:21 86.8 °F 71.8 °F 29.94 in SSE 1.0 mph 3.0 mph 61% 0.00 in
16:26 86.7 °F 73.5 °F 29.94 in SW 1.0 mph 2.0 mph 65% 0.00 in
16:31 86.9 °F 72.8 °F 29.94 in North 1.0 mph 4.0 mph 63% 0.00 in
16:36 87.0 °F 72.4 °F 29.93 in South 3.0 mph 3.0 mph 62% 0.00 in
16:41 87.0 °F 71.9 °F 29.93 in Calm   2.0 mph 61% 0.00 in
16:46 86.9 °F 72.3 °F 29.93 in Calm   1.0 mph 62% 0.00 in
16:51 86.8 °F 72.7 °F 29.93 in South 1.0 mph 1.0 mph 63% 0.00 in
16:56 86.9 °F 71.8 °F 29.93 in SW 3.0 mph 4.0 mph 61% 0.00 in
17:01 86.9 °F 71.3 °F 29.93 in ESE 2.0 mph 2.0 mph 60% 0.00 in
17:06 86.8 °F 71.8 °F 29.93 in South 1.0 mph 3.0 mph 61% 0.00 in
17:11 86.7 °F 72.6 °F 29.94 in West 1.0 mph 1.0 mph 63% 0.00 in
17:16 86.4 °F 72.3 °F 29.93 in South 3.0 mph 3.0 mph 63% 0.00 in
17:21 86.3 °F 73.2 °F 29.93 in South 2.0 mph 2.0 mph 65% 0.00 in
17:26 86.1 °F 72.0 °F 29.93 in SW 1.0 mph 2.0 mph 63% 0.00 in
17:31 85.9 °F 72.8 °F 29.93 in SW 1.0 mph 1.0 mph 65% 0.00 in
17:36 85.8 °F 71.8 °F 29.93 in WNW 1.0 mph 3.0 mph 63% 0.00 in
17:41 85.9 °F 71.8 °F 29.93 in Calm   1.0 mph 63% 0.00 in
17:46 86.0 °F 72.9 °F 29.93 in Calm   1.0 mph 65% 0.00 in
17:51 86.1 °F 71.1 °F 29.93 in ENE 1.0 mph 3.0 mph 61% 0.00 in
17:56 86.1 °F 71.1 °F 29.93 in SE 1.0 mph 3.0 mph 61% 0.00 in
18:01 86.1 °F 71.6 °F 29.93 in ENE 2.0 mph 2.0 mph 62% 0.00 in
18:06 86.1 °F 71.6 °F 29.92 in Calm   2.0 mph 62% 0.00 in
18:11 86.0 °F 71.9 °F 29.92 in Calm   5.0 mph 63% 0.00 in
18:16 85.8 °F 71.8 °F 29.92 in SW 1.0 mph 3.0 mph 63% 0.00 in
18:21 85.6 °F 72.0 °F 29.92 in Calm   1.0 mph 64% 0.00 in
18:26 85.4 °F 72.3 °F 29.92 in SSW 1.0 mph 3.0 mph 65% 0.00 in
18:31 85.2 °F 72.1 °F 29.92 in South 1.0 mph 7.0 mph 65% 0.00 in
18:36 85.0 °F 72.4 °F 29.92 in Calm   1.0 mph 66% 0.00 in
18:41 84.9 °F 72.7 °F 29.92 in Calm   1.0 mph 67% 0.00 in
18:46 84.6 °F 72.4 °F 29.93 in Calm   3.0 mph 67% 0.00 in
18:51 84.4 °F 72.7 °F 29.93 in Calm   2.0 mph 68% 0.00 in
18:56 84.1 °F 72.4 °F 29.93 in Calm   2.0 mph 68% 0.00 in
19:01 84.0 °F 72.7 °F 29.93 in Calm   3.0 mph 69% 0.00 in
19:06 83.8 °F 72.6 °F 29.94 in SW 1.0 mph 4.0 mph 69% 0.00 in
19:11 83.7 °F 72.9 °F 29.94 in Calm   3.0 mph 70% 0.00 in
19:16 83.5 °F 72.7 °F 29.93 in Calm   1.0 mph 70% 0.00 in
19:21 83.3 °F 72.5 °F 29.94 in Calm   2.0 mph 70% 0.00 in
19:26 83.1 °F 72.3 °F 29.94 in SW 1.0 mph 1.0 mph 70% 0.00 in
19:31 82.8 °F 72.4 °F 29.94 in Calm     71% 0.00 in
19:36 82.5 °F 72.2 °F 29.94 in Calm   1.0 mph 71% 0.00 in
19:41 82.2 °F 72.3 °F 29.94 in Calm     72% 0.00 in
19:46 81.9 °F 72.4 °F 29.95 in Calm     73% 0.00 in
19:51 81.6 °F 72.1 °F 29.94 in Calm     73% 0.00 in
19:56 81.4 °F 72.3 °F 29.94 in Calm     74% 0.00 in
20:01 81.2 °F 72.1 °F 29.94 in Calm     74% 0.00 in
20:06 80.9 °F 72.2 °F 29.94 in Calm     75% 0.00 in
20:11 80.6 °F 72.3 °F 29.94 in Calm     76% 0.00 in
20:16 80.3 °F 72.1 °F 29.95 in Calm     76% 0.00 in
20:21 80.1 °F 72.2 °F 29.95 in Calm     77% 0.00 in
20:26 79.8 °F 72.3 °F 29.94 in Calm     78% 0.00 in
20:31 79.6 °F 72.5 °F 29.94 in South 1.0 mph 1.0 mph 79% 0.00 in
20:36 79.4 °F 72.3 °F 29.94 in WSW 1.0 mph 1.0 mph 79% 0.00 in
20:41 79.2 °F 72.5 °F 29.94 in Calm     80% 0.00 in
20:46 79.1 °F 72.4 °F 29.94 in Calm     80% 0.00 in
20:51 78.9 °F 72.2 °F 29.94 in Calm   1.0 mph 80% 0.00 in
20:56 78.7 °F 72.4 °F 29.94 in Calm     81% 0.00 in
21:01 78.5 °F 72.6 °F 29.95 in Calm     82% 0.00 in
21:06 78.4 °F 72.4 °F 29.95 in Calm   2.0 mph 82% 0.00 in
21:11 78.2 °F 72.6 °F 29.95 in Calm     83% 0.00 in
21:16 78.1 °F 72.5 °F 29.95 in Calm   1.0 mph 83% 0.00 in
21:21 78.0 °F 72.8 °F 29.95 in Calm     84% 0.00 in
21:26 77.8 °F 72.6 °F 29.96 in Calm     84% 0.00 in
21:31 77.7 °F 72.8 °F 29.95 in Calm   1.0 mph 85% 0.00 in
21:36 77.6 °F 72.7 °F 29.95 in Calm     85% 0.00 in
21:41 77.5 °F 72.6 °F 29.95 in Calm     85% 0.00 in
21:46 77.5 °F 73.0 °F 29.95 in Calm     86% 0.00 in
HorshamWeather.Com
Compliments of Weather Underground